Richmond International Airport Richmond US
ICAO: KRIC
IATA: RIC
Category: Large
Scheduled Services: Yes

Elevation: 167 ft
TransAlt. 18000 ft.

Airport Communications:
POTOMAC APP/DEP:118.2
ATIS:119.15
CLNC DEL:127.55
GND:121.9
ARNG OPS:40.2
ANG OPS:142.175
LEESBURG RDO:122.2
TWR:121.1
UNICOM:122.95

KRIC Zoom In..

Runways:

(A) RW 02 length 6607 ft width 150 ft
ILS 110.90 / hdg 22

(B) RW 07 length 5326 ft width 100 ft
---- / hdg 66

(C) RW 16 length 9003 ft width 150 ft
ILS 110.70 / hdg 156

(D) RW 20 length 6607 ft width 150 ft
---- / hdg 202

(E) RW 25 length 5326 ft width 100 ft
---- / hdg 246

(F) RW 34 length 9003 ft width 150 ft
ILS 110.70 / hdg 336

Location; KRIC
Day. 30 / Time. 21.54 Zulu
* Altimeter: 29.44
* Temperature: 16° c. 60.8°f.
* Wind from: 240° Speed 12 kn with Gusts up to 20 kn.
Dewpoint: 10° c.
Visibility: 10 Statute Miles.
Clouds: Scattered 4000 ft.
Clouds: Scattered 8000 ft.

KRIC 302154Z 24012G20KT 10SM SCT040 SCT080 16/10 A2944 RMK AO2 PK WND 25026/2115 SLP972 T01610100

Going to: --> -->


Wind From 240°
Speed 12 kn.

 
 
jpsmedia worldairports.se 2020   terms of use